sensor_id;sensor_type;location;lat;lon;timestamp;P1;durP1;ratioP1;P2;durP2;ratioP2
49237;SDS011;35069;47.906;1.892;2022-08-24T00:01:05;1.65;;;0.80;;
49237;SDS011;35069;47.906;1.892;2022-08-24T00:03:32;2.08;;;0.98;;
49237;SDS011;35069;47.906;1.892;2022-08-24T00:05:59;1.63;;;0.77;;
49237;SDS011;35069;47.906;1.892;2022-08-24T00:08:25;1.02;;;0.70;;
49237;SDS011;35069;47.906;1.892;2022-08-24T00:10:51;0.60;;;0.60;;
49237;SDS011;35069;47.906;1.892;2022-08-24T00:13:17;1.70;;;0.80;;
49237;SDS011;35069;47.906;1.892;2022-08-24T00:15:43;0.68;;;0.65;;
49237;SDS011;35069;47.906;1.892;2022-08-24T00:18:09;0.55;;;0.50;;
49237;SDS011;35069;47.906;1.892;2022-08-24T00:20:35;0.90;;;0.60;;
49237;SDS011;35069;47.906;1.892;2022-08-24T00:23:01;1.38;;;1.17;;
49237;SDS011;35069;47.906;1.892;2022-08-24T00:25:27;1.85;;;0.80;;
49237;SDS011;35069;47.906;1.892;2022-08-24T00:27:53;1.30;;;0.60;;
49237;SDS011;35069;47.906;1.892;2022-08-24T00:30:19;3.35;;;0.95;;
49237;SDS011;35069;47.906;1.892;2022-08-24T00:32:46;1.27;;;0.60;;
49237;SDS011;35069;47.906;1.892;2022-08-24T00:35:13;3.03;;;0.90;;
49237;SDS011;35069;47.906;1.892;2022-08-24T00:37:42;2.80;;;0.82;;
49237;SDS011;35069;47.906;1.892;2022-08-24T00:40:14;1.98;;;0.73;;
49237;SDS011;35069;47.906;1.892;2022-08-24T00:42:49;1.65;;;0.77;;
49237;SDS011;35069;47.906;1.892;2022-08-24T00:45:16;3.25;;;0.85;;
49237;SDS011;35069;47.906;1.892;2022-08-24T00:47:43;0.60;;;0.55;;
49237;SDS011;35069;47.906;1.892;2022-08-24T00:50:16;1.42;;;0.50;;
49237;SDS011;35069;47.906;1.892;2022-08-24T00:52:48;0.60;;;0.60;;
49237;SDS011;35069;47.906;1.892;2022-08-24T00:55:22;0.60;;;0.60;;
49237;SDS011;35069;47.906;1.892;2022-08-24T00:57:54;2.78;;;0.65;;
49237;SDS011;35069;47.906;1.892;2022-08-24T01:00:25;1.05;;;0.65;;
49237;SDS011;35069;47.906;1.892;2022-08-24T01:02:57;1.85;;;1.00;;
49237;SDS011;35069;47.906;1.892;2022-08-24T01:07:58;1.17;;;0.75;;
49237;SDS011;35069;47.906;1.892;2022-08-24T01:10:25;2.20;;;0.65;;
49237;SDS011;35069;47.906;1.892;2022-08-24T01:13:02;2.40;;;0.80;;
49237;SDS011;35069;47.906;1.892;2022-08-24T01:15:36;2.33;;;0.60;;
49237;SDS011;35069;47.906;1.892;2022-08-24T01:18:04;0.70;;;0.68;;
49237;SDS011;35069;47.906;1.892;2022-08-24T01:20:53;2.22;;;0.88;;
49237;SDS011;35069;47.906;1.892;2022-08-24T01:23:42;5.13;;;1.08;;
49237;SDS011;35069;47.906;1.892;2022-08-24T01:26:13;4.80;;;0.98;;
49237;SDS011;35069;47.906;1.892;2022-08-24T01:28:43;5.55;;;0.90;;
49237;SDS011;35069;47.906;1.892;2022-08-24T01:31:13;2.25;;;0.95;;
49237;SDS011;35069;47.906;1.892;2022-08-24T01:33:40;2.15;;;0.88;;
49237;SDS011;35069;47.906;1.892;2022-08-24T01:36:29;2.60;;;0.88;;
49237;SDS011;35069;47.906;1.892;2022-08-24T01:38:57;4.07;;;1.00;;
49237;SDS011;35069;47.906;1.892;2022-08-24T01:41:28;6.40;;;1.40;;
49237;SDS011;35069;47.906;1.892;2022-08-24T01:43:53;2.95;;;0.75;;
49237;SDS011;35069;47.906;1.892;2022-08-24T01:46:20;7.47;;;1.02;;
49237;SDS011;35069;47.906;1.892;2022-08-24T01:48:45;1.50;;;0.82;;
49237;SDS011;35069;47.906;1.892;2022-08-24T01:51:11;2.15;;;0.85;;
49237;SDS011;35069;47.906;1.892;2022-08-24T01:53:36;6.68;;;0.98;;
49237;SDS011;35069;47.906;1.892;2022-08-24T01:56:02;3.80;;;1.27;;
49237;SDS011;35069;47.906;1.892;2022-08-24T01:58:28;1.50;;;0.85;;
49237;SDS011;35069;47.906;1.892;2022-08-24T02:00:53;1.95;;;0.88;;
49237;SDS011;35069;47.906;1.892;2022-08-24T02:03:19;1.08;;;1.00;;
49237;SDS011;35069;47.906;1.892;2022-08-24T02:05:46;4.10;;;1.00;;
49237;SDS011;35069;47.906;1.892;2022-08-24T02:08:12;4.53;;;1.08;;
49237;SDS011;35069;47.906;1.892;2022-08-24T02:10:38;0.73;;;0.73;;
49237;SDS011;35069;47.906;1.892;2022-08-24T02:13:03;2.95;;;1.05;;
49237;SDS011;35069;47.906;1.892;2022-08-24T02:15:30;1.98;;;1.25;;
49237;SDS011;35069;47.906;1.892;2022-08-24T02:18:00;3.13;;;1.60;;
49237;SDS011;35069;47.906;1.892;2022-08-24T02:20:26;1.00;;;0.93;;
49237;SDS011;35069;47.906;1.892;2022-08-24T02:22:52;3.88;;;0.90;;
49237;SDS011;35069;47.906;1.892;2022-08-24T02:25:19;2.10;;;0.80;;
49237;SDS011;35069;47.906;1.892;2022-08-24T02:27:45;0.75;;;0.75;;
49237;SDS011;35069;47.906;1.892;2022-08-24T02:30:11;1.05;;;0.82;;
49237;SDS011;35069;47.906;1.892;2022-08-24T02:32:37;3.38;;;1.45;;
49237;SDS011;35069;47.906;1.892;2022-08-24T02:35:03;1.38;;;0.65;;
49237;SDS011;35069;47.906;1.892;2022-08-24T02:37:29;1.45;;;0.98;;
49237;SDS011;35069;47.906;1.892;2022-08-24T02:39:54;2.17;;;1.67;;
49237;SDS011;35069;47.906;1.892;2022-08-24T02:42:20;4.32;;;0.85;;
49237;SDS011;35069;47.906;1.892;2022-08-24T02:44:45;2.35;;;0.82;;
49237;SDS011;35069;47.906;1.892;2022-08-24T02:47:12;1.95;;;0.90;;
49237;SDS011;35069;47.906;1.892;2022-08-24T02:49:37;0.90;;;0.90;;
49237;SDS011;35069;47.906;1.892;2022-08-24T02:52:03;0.90;;;0.90;;
49237;SDS011;35069;47.906;1.892;2022-08-24T02:54:28;1.67;;;1.00;;
49237;SDS011;35069;47.906;1.892;2022-08-24T02:56:54;0.75;;;0.65;;
49237;SDS011;35069;47.906;1.892;2022-08-24T02:59:20;1.95;;;0.88;;
49237;SDS011;35069;47.906;1.892;2022-08-24T03:01:47;2.85;;;0.88;;
49237;SDS011;35069;47.906;1.892;2022-08-24T03:04:14;4.93;;;1.17;;
49237;SDS011;35069;47.906;1.892;2022-08-24T03:06:39;1.25;;;1.08;;
49237;SDS011;35069;47.906;1.892;2022-08-24T03:09:06;2.50;;;0.93;;
49237;SDS011;35069;47.906;1.892;2022-08-24T03:11:32;1.48;;;1.05;;
49237;SDS011;35069;47.906;1.892;2022-08-24T03:13:58;1.33;;;0.90;;
49237;SDS011;35069;47.906;1.892;2022-08-24T03:16:25;2.95;;;1.08;;
49237;SDS011;35069;47.906;1.892;2022-08-24T03:18:52;0.63;;;0.63;;
49237;SDS011;35069;47.906;1.892;2022-08-24T03:21:17;1.50;;;1.13;;
49237;SDS011;35069;47.906;1.892;2022-08-24T03:23:43;1.10;;;0.98;;
49237;SDS011;35069;47.906;1.892;2022-08-24T03:26:09;1.40;;;0.80;;
49237;SDS011;35069;47.906;1.892;2022-08-24T03:28:35;0.60;;;0.50;;
49237;SDS011;35069;47.906;1.892;2022-08-24T03:31:00;0.93;;;0.73;;
49237;SDS011;35069;47.906;1.892;2022-08-24T03:33:26;0.95;;;0.82;;
49237;SDS011;35069;47.906;1.892;2022-08-24T03:35:52;6.25;;;1.33;;
49237;SDS011;35069;47.906;1.892;2022-08-24T03:38:18;2.65;;;0.80;;
49237;SDS011;35069;47.906;1.892;2022-08-24T03:40:45;1.60;;;1.27;;
49237;SDS011;35069;47.906;1.892;2022-08-24T03:43:10;2.88;;;1.00;;
49237;SDS011;35069;47.906;1.892;2022-08-24T03:45:56;2.50;;;1.15;;
49237;SDS011;35069;47.906;1.892;2022-08-24T03:48:22;2.80;;;0.88;;
49237;SDS011;35069;47.906;1.892;2022-08-24T03:50:48;2.00;;;1.05;;
49237;SDS011;35069;47.906;1.892;2022-08-24T03:53:14;1.25;;;0.98;;
49237;SDS011;35069;47.906;1.892;2022-08-24T03:55:39;3.80;;;1.00;;
49237;SDS011;35069;47.906;1.892;2022-08-24T03:58:05;1.20;;;1.10;;
49237;SDS011;35069;47.906;1.892;2022-08-24T04:00:31;1.40;;;1.30;;
49237;SDS011;35069;47.906;1.892;2022-08-24T04:02:56;1.85;;;1.75;;
49237;SDS011;35069;47.906;1.892;2022-08-24T04:05:22;3.33;;;2.38;;
49237;SDS011;35069;47.906;1.892;2022-08-24T04:07:47;1.80;;;1.10;;
49237;SDS011;35069;47.906;1.892;2022-08-24T04:10:13;2.67;;;1.73;;
49237;SDS011;35069;47.906;1.892;2022-08-24T04:12:39;1.80;;;1.25;;
49237;SDS011;35069;47.906;1.892;2022-08-24T04:15:04;2.03;;;1.17;;
49237;SDS011;35069;47.906;1.892;2022-08-24T04:17:31;0.90;;;0.70;;
49237;SDS011;35069;47.906;1.892;2022-08-24T04:19:56;3.33;;;1.00;;
49237;SDS011;35069;47.906;1.892;2022-08-24T04:22:23;2.22;;;0.70;;
49237;SDS011;35069;47.906;1.892;2022-08-24T04:24:50;2.35;;;0.80;;
49237;SDS011;35069;47.906;1.892;2022-08-24T04:27:16;1.05;;;1.02;;
49237;SDS011;35069;47.906;1.892;2022-08-24T04:29:41;3.35;;;1.50;;
49237;SDS011;35069;47.906;1.892;2022-08-24T04:32:07;2.17;;;1.40;;
49237;SDS011;35069;47.906;1.892;2022-08-24T04:34:33;2.80;;;1.00;;
49237;SDS011;35069;47.906;1.892;2022-08-24T04:37:00;1.85;;;1.00;;
49237;SDS011;35069;47.906;1.892;2022-08-24T04:39:26;2.15;;;1.05;;
49237;SDS011;35069;47.906;1.892;2022-08-24T04:41:51;1.48;;;0.95;;
49237;SDS011;35069;47.906;1.892;2022-08-24T04:44:17;2.05;;;1.85;;
49237;SDS011;35069;47.906;1.892;2022-08-24T04:46:43;1.75;;;1.60;;
49237;SDS011;35069;47.906;1.892;2022-08-24T04:49:09;1.30;;;0.80;;
49237;SDS011;35069;47.906;1.892;2022-08-24T04:51:35;3.60;;;1.02;;
49237;SDS011;35069;47.906;1.892;2022-08-24T04:54:01;0.75;;;0.75;;
49237;SDS011;35069;47.906;1.892;2022-08-24T04:56:28;1.02;;;1.02;;
49237;SDS011;35069;47.906;1.892;2022-08-24T04:58:53;1.23;;;1.20;;
49237;SDS011;35069;47.906;1.892;2022-08-24T05:01:21;2.22;;;1.20;;
49237;SDS011;35069;47.906;1.892;2022-08-24T05:03:49;1.35;;;1.25;;
49237;SDS011;35069;47.906;1.892;2022-08-24T05:06:17;1.88;;;1.27;;
49237;SDS011;35069;47.906;1.892;2022-08-24T05:08:43;1.10;;;1.00;;
49237;SDS011;35069;47.906;1.892;2022-08-24T05:11:11;0.90;;;0.90;;
49237;SDS011;35069;47.906;1.892;2022-08-24T05:13:38;1.45;;;1.00;;
49237;SDS011;35069;47.906;1.892;2022-08-24T05:16:08;2.50;;;1.08;;
49237;SDS011;35069;47.906;1.892;2022-08-24T05:18:36;2.33;;;1.52;;
49237;SDS011;35069;47.906;1.892;2022-08-24T05:21:05;1.02;;;0.93;;
49237;SDS011;35069;47.906;1.892;2022-08-24T05:23:32;0.77;;;0.77;;
49237;SDS011;35069;47.906;1.892;2022-08-24T05:26:18;1.00;;;1.00;;
49237;SDS011;35069;47.906;1.892;2022-08-24T05:28:49;2.00;;;0.98;;
49237;SDS011;35069;47.906;1.892;2022-08-24T05:31:20;2.67;;;0.95;;
49237;SDS011;35069;47.906;1.892;2022-08-24T05:33:47;1.23;;;0.80;;
49237;SDS011;35069;47.906;1.892;2022-08-24T05:36:32;1.48;;;0.98;;
49237;SDS011;35069;47.906;1.892;2022-08-24T05:39:03;1.00;;;0.93;;
49237;SDS011;35069;47.906;1.892;2022-08-24T05:41:30;1.20;;;1.10;;
49237;SDS011;35069;47.906;1.892;2022-08-24T05:43:56;3.45;;;0.98;;
49237;SDS011;35069;47.906;1.892;2022-08-24T05:46:22;1.30;;;1.25;;
49237;SDS011;35069;47.906;1.892;2022-08-24T05:48:47;3.90;;;1.42;;
49237;SDS011;35069;47.906;1.892;2022-08-24T05:51:13;9.38;;;1.60;;
49237;SDS011;35069;47.906;1.892;2022-08-24T05:53:38;1.20;;;1.05;;
49237;SDS011;35069;47.906;1.892;2022-08-24T05:56:06;2.70;;;1.20;;
49237;SDS011;35069;47.906;1.892;2022-08-24T05:58:33;3.60;;;1.42;;
49237;SDS011;35069;47.906;1.892;2022-08-24T06:01:04;0.85;;;0.85;;
49237;SDS011;35069;47.906;1.892;2022-08-24T06:03:38;3.38;;;0.85;;
49237;SDS011;35069;47.906;1.892;2022-08-24T06:06:05;3.33;;;1.00;;
49237;SDS011;35069;47.906;1.892;2022-08-24T06:08:36;1.15;;;0.90;;
49237;SDS011;35069;47.906;1.892;2022-08-24T06:11:03;3.42;;;1.20;;
49237;SDS011;35069;47.906;1.892;2022-08-24T06:13:29;3.60;;;1.02;;
49237;SDS011;35069;47.906;1.892;2022-08-24T06:16:29;4.78;;;1.38;;
49237;SDS011;35069;47.906;1.892;2022-08-24T06:18:48;1.65;;;0.85;;
49237;SDS011;35069;47.906;1.892;2022-08-24T06:21:17;2.42;;;0.80;;
49237;SDS011;35069;47.906;1.892;2022-08-24T06:23:46;2.08;;;0.70;;
49237;SDS011;35069;47.906;1.892;2022-08-24T06:26:12;4.32;;;0.98;;
49237;SDS011;35069;47.906;1.892;2022-08-24T06:28:57;1.55;;;0.80;;
49237;SDS011;35069;47.906;1.892;2022-08-24T06:31:24;2.50;;;1.00;;
49237;SDS011;35069;47.906;1.892;2022-08-24T06:33:51;3.80;;;0.90;;
49237;SDS011;35069;47.906;1.892;2022-08-24T06:36:17;5.15;;;1.65;;
49237;SDS011;35069;47.906;1.892;2022-08-24T06:38:43;2.25;;;0.95;;
49237;SDS011;35069;47.906;1.892;2022-08-24T06:41:09;2.03;;;0.75;;
49237;SDS011;35069;47.906;1.892;2022-08-24T06:43:35;3.22;;;1.63;;
49237;SDS011;35069;47.906;1.892;2022-08-24T06:46:02;3.08;;;1.20;;
49237;SDS011;35069;47.906;1.892;2022-08-24T06:48:29;3.35;;;1.25;;
49237;SDS011;35069;47.906;1.892;2022-08-24T06:50:55;1.98;;;1.17;;
49237;SDS011;35069;47.906;1.892;2022-08-24T06:53:21;1.83;;;1.00;;
49237;SDS011;35069;47.906;1.892;2022-08-24T06:55:52;4.03;;;1.50;;
49237;SDS011;35069;47.906;1.892;2022-08-24T06:58:19;1.75;;;0.70;;
49237;SDS011;35069;47.906;1.892;2022-08-24T07:00:46;3.30;;;0.88;;
49237;SDS011;35069;47.906;1.892;2022-08-24T07:03:12;1.17;;;0.88;;
49237;SDS011;35069;47.906;1.892;2022-08-24T07:05:38;1.58;;;1.23;;
49237;SDS011;35069;47.906;1.892;2022-08-24T07:08:04;2.42;;;1.92;;
49237;SDS011;35069;47.906;1.892;2022-08-24T07:10:31;2.17;;;1.50;;
49237;SDS011;35069;47.906;1.892;2022-08-24T07:12:58;1.70;;;0.93;;
49237;SDS011;35069;47.906;1.892;2022-08-24T07:15:24;4.50;;;0.80;;
49237;SDS011;35069;47.906;1.892;2022-08-24T07:17:50;1.27;;;0.80;;
49237;SDS011;35069;47.906;1.892;2022-08-24T07:20:16;1.02;;;0.70;;
49237;SDS011;35069;47.906;1.892;2022-08-24T07:22:41;3.08;;;0.88;;
49237;SDS011;35069;47.906;1.892;2022-08-24T07:25:08;4.82;;;1.25;;
49237;SDS011;35069;47.906;1.892;2022-08-24T07:27:35;3.47;;;1.00;;
49237;SDS011;35069;47.906;1.892;2022-08-24T07:30:01;1.35;;;0.85;;
49237;SDS011;35069;47.906;1.892;2022-08-24T07:32:27;2.03;;;1.00;;
49237;SDS011;35069;47.906;1.892;2022-08-24T07:34:53;1.30;;;0.93;;
49237;SDS011;35069;47.906;1.892;2022-08-24T07:37:19;1.20;;;0.60;;
49237;SDS011;35069;47.906;1.892;2022-08-24T07:39:44;4.07;;;1.05;;
49237;SDS011;35069;47.906;1.892;2022-08-24T07:42:10;1.67;;;1.15;;
49237;SDS011;35069;47.906;1.892;2022-08-24T07:44:36;1.13;;;1.13;;
49237;SDS011;35069;47.906;1.892;2022-08-24T07:47:02;1.98;;;1.15;;
49237;SDS011;35069;47.906;1.892;2022-08-24T07:49:28;2.08;;;1.13;;
49237;SDS011;35069;47.906;1.892;2022-08-24T07:51:53;3.33;;;1.00;;
49237;SDS011;35069;47.906;1.892;2022-08-24T07:54:19;2.70;;;1.10;;
49237;SDS011;35069;47.906;1.892;2022-08-24T07:56:45;3.85;;;0.80;;
49237;SDS011;35069;47.906;1.892;2022-08-24T07:59:11;2.42;;;1.08;;
49237;SDS011;35069;47.906;1.892;2022-08-24T08:01:36;2.92;;;0.98;;
49237;SDS011;35069;47.906;1.892;2022-08-24T08:04:02;3.85;;;0.98;;
49237;SDS011;35069;47.906;1.892;2022-08-24T08:06:28;1.15;;;0.80;;
49237;SDS011;35069;47.906;1.892;2022-08-24T08:08:54;1.05;;;0.73;;
49237;SDS011;35069;47.906;1.892;2022-08-24T08:11:20;3.40;;;0.60;;
49237;SDS011;35069;47.906;1.892;2022-08-24T08:13:46;1.75;;;0.68;;
49237;SDS011;35069;47.906;1.892;2022-08-24T08:16:11;9.68;;;0.73;;
49237;SDS011;35069;47.906;1.892;2022-08-24T08:18:37;0.65;;;0.50;;
49237;SDS011;35069;47.906;1.892;2022-08-24T08:21:03;4.63;;;0.63;;
49237;SDS011;35069;47.906;1.892;2022-08-24T08:23:29;7.43;;;1.00;;
49237;SDS011;35069;47.906;1.892;2022-08-24T08:26:15;3.03;;;0.70;;
49237;SDS011;35069;47.906;1.892;2022-08-24T08:28:44;2.25;;;1.02;;
49237;SDS011;35069;47.906;1.892;2022-08-24T08:31:09;0.68;;;0.60;;
49237;SDS011;35069;47.906;1.892;2022-08-24T08:33:35;1.48;;;0.47;;
49237;SDS011;35069;47.906;1.892;2022-08-24T08:36:08;2.88;;;0.47;;
49237;SDS011;35069;47.906;1.892;2022-08-24T08:38:36;2.90;;;0.65;;
49237;SDS011;35069;47.906;1.892;2022-08-24T08:41:08;6.55;;;1.40;;
49237;SDS011;35069;47.906;1.892;2022-08-24T08:43:47;1.85;;;0.75;;
49237;SDS011;35069;47.906;1.892;2022-08-24T08:56:02;3.22;;;0.47;;
49237;SDS011;35069;47.906;1.892;2022-08-24T08:58:51;1.65;;;0.57;;
49237;SDS011;35069;47.906;1.892;2022-08-24T09:01:43;7.43;;;0.75;;
49237;SDS011;35069;47.906;1.892;2022-08-24T09:09:48;0.20;;;0.20;;
49237;SDS011;35069;47.906;1.892;2022-08-24T09:18:21;3.40;;;1.15;;
49237;SDS011;35069;47.906;1.892;2022-08-24T09:21:43;6.10;;;0.30;;
49237;SDS011;35069;47.906;1.892;2022-08-24T09:29:58;1.95;;;0.30;;
49237;SDS011;35069;47.906;1.892;2022-08-24T09:35:17;0.57;;;0.20;;
49237;SDS011;35069;47.906;1.892;2022-08-24T09:41:14;3.55;;;0.40;;
49237;SDS011;35069;47.906;1.892;2022-08-24T09:43:50;1.13;;;0.30;;
49237;SDS011;35069;47.906;1.892;2022-08-24T09:49:22;3.78;;;0.75;;
49237;SDS011;35069;47.906;1.892;2022-08-24T10:00:46;4.95;;;0.57;;
49237;SDS011;35069;47.906;1.892;2022-08-24T10:16:54;3.53;;;0.30;;
49237;SDS011;35069;47.906;1.892;2022-08-24T10:33:21;2.40;;;0.30;;
49237;SDS011;35069;47.906;1.892;2022-08-24T10:36:13;3.30;;;1.63;;
49237;SDS011;35069;47.906;1.892;2022-08-24T10:39:11;4.57;;;0.40;;
49237;SDS011;35069;47.906;1.892;2022-08-24T10:47:58;1.60;;;0.30;;
49237;SDS011;35069;47.906;1.892;2022-08-24T10:50:52;1.33;;;0.28;;
49237;SDS011;35069;47.906;1.892;2022-08-24T10:53:28;0.23;;;0.23;;
49237;SDS011;35069;47.906;1.892;2022-08-24T10:56:11;2.78;;;0.40;;
49237;SDS011;35069;47.906;1.892;2022-08-24T11:06:16;0.20;;;0.20;;
49237;SDS011;35069;47.906;1.892;2022-08-24T11:08:54;0.40;;;0.30;;
49237;SDS011;35069;47.906;1.892;2022-08-24T11:11:24;2.35;;;0.35;;
49237;SDS011;35069;47.906;1.892;2022-08-24T11:14:04;2.58;;;0.28;;
49237;SDS011;35069;47.906;1.892;2022-08-24T11:16:50;0.30;;;0.30;;
49237;SDS011;35069;47.906;1.892;2022-08-24T11:21:51;0.20;;;0.20;;
49237;SDS011;35069;47.906;1.892;2022-08-24T11:26:55;1.27;;;0.20;;
49237;SDS011;35069;47.906;1.892;2022-08-24T11:29:27;1.75;;;0.25;;
49237;SDS011;35069;47.906;1.892;2022-08-24T11:32:24;2.13;;;0.22;;
49237;SDS011;35069;47.906;1.892;2022-08-24T11:34:52;0.10;;;0.10;;
49237;SDS011;35069;47.906;1.892;2022-08-24T11:37:22;0.40;;;0.30;;
49237;SDS011;35069;47.906;1.892;2022-08-24T11:39:55;0.28;;;0.28;;
49237;SDS011;35069;47.906;1.892;2022-08-24T11:45:13;1.35;;;0.30;;
49237;SDS011;35069;47.906;1.892;2022-08-24T11:48:10;0.90;;;0.25;;
49237;SDS011;35069;47.906;1.892;2022-08-24T11:51:09;0.20;;;0.20;;
49237;SDS011;35069;47.906;1.892;2022-08-24T11:59:37;5.40;;;0.35;;
49237;SDS011;35069;47.906;1.892;2022-08-24T12:02:18;0.73;;;0.20;;
49237;SDS011;35069;47.906;1.892;2022-08-24T12:07:22;0.20;;;0.20;;
49237;SDS011;35069;47.906;1.892;2022-08-24T12:20:48;2.20;;;0.22;;
49237;SDS011;35069;47.906;1.892;2022-08-24T12:23:27;0.20;;;0.20;;
49237;SDS011;35069;47.906;1.892;2022-08-24T12:26:03;0.80;;;0.30;;
49237;SDS011;35069;47.906;1.892;2022-08-24T12:28:49;0.25;;;0.25;;
49237;SDS011;35069;47.906;1.892;2022-08-24T12:31:20;1.10;;;0.40;;
49237;SDS011;35069;47.906;1.892;2022-08-24T12:33:53;0.90;;;0.20;;
49237;SDS011;35069;47.906;1.892;2022-08-24T12:36:40;0.68;;;0.30;;
49237;SDS011;35069;47.906;1.892;2022-08-24T12:39:17;1.98;;;0.25;;
49237;SDS011;35069;47.906;1.892;2022-08-24T12:41:54;3.85;;;0.70;;
49237;SDS011;35069;47.906;1.892;2022-08-24T12:44:49;0.10;;;0.10;;
49237;SDS011;35069;47.906;1.892;2022-08-24T12:55:56;2.50;;;0.40;;
49237;SDS011;35069;47.906;1.892;2022-08-24T12:58:51;0.20;;;0.20;;
49237;SDS011;35069;47.906;1.892;2022-08-24T13:01:25;0.80;;;0.30;;
49237;SDS011;35069;47.906;1.892;2022-08-24T13:04:04;0.95;;;0.30;;
49237;SDS011;35069;47.906;1.892;2022-08-24T13:09:11;0.20;;;0.20;;
49237;SDS011;35069;47.906;1.892;2022-08-24T13:11:51;0.30;;;0.20;;
49237;SDS011;35069;47.906;1.892;2022-08-24T13:16:46;1.98;;;0.40;;
49237;SDS011;35069;47.906;1.892;2022-08-24T13:26:54;0.30;;;0.30;;
49237;SDS011;35069;47.906;1.892;2022-08-24T13:29:41;1.50;;;0.43;;
49237;SDS011;35069;47.906;1.892;2022-08-24T13:40:48;0.70;;;0.45;;
49237;SDS011;35069;47.906;1.892;2022-08-24T13:43:37;4.40;;;0.50;;
49237;SDS011;35069;47.906;1.892;2022-08-24T13:49:32;0.57;;;0.40;;
49237;SDS011;35069;47.906;1.892;2022-08-24T13:57:24;0.30;;;0.30;;
49237;SDS011;35069;47.906;1.892;2022-08-24T14:00:04;1.10;;;0.60;;
49237;SDS011;35069;47.906;1.892;2022-08-24T14:05:54;1.58;;;0.73;;
49237;SDS011;35069;47.906;1.892;2022-08-24T14:08:49;0.40;;;0.40;;
49237;SDS011;35069;47.906;1.892;2022-08-24T14:14:20;0.73;;;0.73;;
49237;SDS011;35069;47.906;1.892;2022-08-24T14:17:08;2.60;;;0.50;;
49237;SDS011;35069;47.906;1.892;2022-08-24T14:25:42;1.95;;;0.40;;
49237;SDS011;35069;47.906;1.892;2022-08-24T14:31:22;1.95;;;0.70;;
49237;SDS011;35069;47.906;1.892;2022-08-24T14:36:45;2.40;;;0.70;;
49237;SDS011;35069;47.906;1.892;2022-08-24T14:39:20;3.05;;;0.60;;
49237;SDS011;35069;47.906;1.892;2022-08-24T14:50:34;2.47;;;0.60;;
49237;SDS011;35069;47.906;1.892;2022-08-24T14:53:08;1.40;;;0.63;;
49237;SDS011;35069;47.906;1.892;2022-08-24T14:55:54;1.40;;;0.50;;
49237;SDS011;35069;47.906;1.892;2022-08-24T14:58:39;1.15;;;0.47;;
49237;SDS011;35069;47.906;1.892;2022-08-24T15:06:24;0.60;;;0.60;;
49237;SDS011;35069;47.906;1.892;2022-08-24T15:09:07;0.70;;;0.70;;
49237;SDS011;35069;47.906;1.892;2022-08-24T15:11:34;1.42;;;0.93;;
49237;SDS011;35069;47.906;1.892;2022-08-24T15:14:04;2.92;;;0.40;;
49237;SDS011;35069;47.906;1.892;2022-08-24T15:16:49;1.95;;;0.90;;
49237;SDS011;35069;47.906;1.892;2022-08-24T15:22:40;3.50;;;0.93;;
49237;SDS011;35069;47.906;1.892;2022-08-24T15:25:18;2.40;;;0.85;;
49237;SDS011;35069;47.906;1.892;2022-08-24T15:28:10;2.35;;;0.93;;
49237;SDS011;35069;47.906;1.892;2022-08-24T15:31:04;2.30;;;1.10;;
49237;SDS011;35069;47.906;1.892;2022-08-24T15:33:32;1.60;;;1.00;;
49237;SDS011;35069;47.906;1.892;2022-08-24T15:36:10;1.17;;;1.08;;
49237;SDS011;35069;47.906;1.892;2022-08-24T15:38:39;2.05;;;1.02;;
49237;SDS011;35069;47.906;1.892;2022-08-24T15:41:14;5.50;;;0.82;;
49237;SDS011;35069;47.906;1.892;2022-08-24T15:46:11;5.00;;;1.45;;
49237;SDS011;35069;47.906;1.892;2022-08-24T15:48:38;3.72;;;1.15;;
49237;SDS011;35069;47.906;1.892;2022-08-24T15:51:06;1.92;;;0.80;;
49237;SDS011;35069;47.906;1.892;2022-08-24T15:53:34;3.70;;;0.80;;
49237;SDS011;35069;47.906;1.892;2022-08-24T15:56:38;2.47;;;0.90;;
49237;SDS011;35069;47.906;1.892;2022-08-24T15:59:10;2.35;;;1.00;;
49237;SDS011;35069;47.906;1.892;2022-08-24T16:01:53;4.22;;;0.90;;
49237;SDS011;35069;47.906;1.892;2022-08-24T16:04:51;3.80;;;1.15;;
49237;SDS011;35069;47.906;1.892;2022-08-24T16:07:28;3.05;;;1.35;;
49237;SDS011;35069;47.906;1.892;2022-08-24T16:10:10;0.88;;;0.85;;
49237;SDS011;35069;47.906;1.892;2022-08-24T16:12:37;1.20;;;1.13;;
49237;SDS011;35069;47.906;1.892;2022-08-24T16:15:14;6.03;;;2.90;;
49237;SDS011;35069;47.906;1.892;2022-08-24T16:17:48;1.45;;;1.02;;
49237;SDS011;35069;47.906;1.892;2022-08-24T16:22:54;2.75;;;1.40;;
49237;SDS011;35069;47.906;1.892;2022-08-24T16:30:45;1.55;;;1.45;;
49237;SDS011;35069;47.906;1.892;2022-08-24T16:36:08;2.25;;;1.40;;
49237;SDS011;35069;47.906;1.892;2022-08-24T16:38:37;1.95;;;1.55;;
49237;SDS011;35069;47.906;1.892;2022-08-24T16:41:06;2.97;;;1.70;;
49237;SDS011;35069;47.906;1.892;2022-08-24T16:43:34;7.15;;;1.70;;
49237;SDS011;35069;47.906;1.892;2022-08-24T16:46:02;4.53;;;1.92;;
49237;SDS011;35069;47.906;1.892;2022-08-24T16:48:30;2.47;;;1.17;;
49237;SDS011;35069;47.906;1.892;2022-08-24T16:50:56;2.90;;;1.67;;
49237;SDS011;35069;47.906;1.892;2022-08-24T16:53:22;1.65;;;1.50;;
49237;SDS011;35069;47.906;1.892;2022-08-24T16:55:48;1.67;;;1.30;;
49237;SDS011;35069;47.906;1.892;2022-08-24T16:58:15;1.58;;;1.45;;
49237;SDS011;35069;47.906;1.892;2022-08-24T17:00:41;1.42;;;1.33;;
49237;SDS011;35069;47.906;1.892;2022-08-24T17:03:09;1.73;;;1.23;;
49237;SDS011;35069;47.906;1.892;2022-08-24T17:05:36;1.33;;;1.23;;
49237;SDS011;35069;47.906;1.892;2022-08-24T17:08:02;1.48;;;1.38;;
49237;SDS011;35069;47.906;1.892;2022-08-24T17:10:28;6.53;;;1.50;;
49237;SDS011;35069;47.906;1.892;2022-08-24T17:12:55;2.53;;;1.73;;
49237;SDS011;35069;47.906;1.892;2022-08-24T17:15:21;1.60;;;1.50;;
49237;SDS011;35069;47.906;1.892;2022-08-24T17:17:52;3.40;;;1.50;;
49237;SDS011;35069;47.906;1.892;2022-08-24T17:20:23;2.25;;;1.45;;
49237;SDS011;35069;47.906;1.892;2022-08-24T17:22:49;3.33;;;1.25;;
49237;SDS011;35069;47.906;1.892;2022-08-24T17:25:15;3.13;;;1.70;;
49237;SDS011;35069;47.906;1.892;2022-08-24T17:27:42;2.33;;;1.48;;
49237;SDS011;35069;47.906;1.892;2022-08-24T17:30:08;2.60;;;1.30;;
49237;SDS011;35069;47.906;1.892;2022-08-24T17:32:35;2.97;;;1.52;;
49237;SDS011;35069;47.906;1.892;2022-08-24T17:35:01;1.20;;;1.20;;
49237;SDS011;35069;47.906;1.892;2022-08-24T17:37:27;2.38;;;1.70;;
49237;SDS011;35069;47.906;1.892;2022-08-24T17:39:55;2.78;;;1.52;;
49237;SDS011;35069;47.906;1.892;2022-08-24T17:42:21;2.78;;;1.58;;
49237;SDS011;35069;47.906;1.892;2022-08-24T17:44:47;2.78;;;1.50;;
49237;SDS011;35069;47.906;1.892;2022-08-24T17:47:13;4.90;;;1.80;;
49237;SDS011;35069;47.906;1.892;2022-08-24T17:49:40;2.10;;;1.45;;
49237;SDS011;35069;47.906;1.892;2022-08-24T17:52:06;2.80;;;1.60;;
49237;SDS011;35069;47.906;1.892;2022-08-24T17:54:31;1.83;;;1.40;;
49237;SDS011;35069;47.906;1.892;2022-08-24T17:56:57;6.85;;;1.50;;
49237;SDS011;35069;47.906;1.892;2022-08-24T17:59:30;1.60;;;1.50;;
49237;SDS011;35069;47.906;1.892;2022-08-24T18:02:01;2.55;;;1.70;;
49237;SDS011;35069;47.906;1.892;2022-08-24T18:04:29;1.85;;;1.35;;
49237;SDS011;35069;47.906;1.892;2022-08-24T18:06:57;1.77;;;1.67;;
49237;SDS011;35069;47.906;1.892;2022-08-24T18:09:29;2.35;;;1.40;;
49237;SDS011;35069;47.906;1.892;2022-08-24T18:11:59;3.28;;;1.55;;
49237;SDS011;35069;47.906;1.892;2022-08-24T18:14:28;3.17;;;2.40;;
49237;SDS011;35069;47.906;1.892;2022-08-24T18:16:56;1.73;;;1.63;;
49237;SDS011;35069;47.906;1.892;2022-08-24T18:19:24;1.90;;;1.80;;
49237;SDS011;35069;47.906;1.892;2022-08-24T18:21:50;2.25;;;1.30;;
49237;SDS011;35069;47.906;1.892;2022-08-24T18:24:16;2.58;;;1.50;;
49237;SDS011;35069;47.906;1.892;2022-08-24T18:26:41;3.95;;;1.92;;
49237;SDS011;35069;47.906;1.892;2022-08-24T18:29:14;1.58;;;1.48;;
49237;SDS011;35069;47.906;1.892;2022-08-24T18:31:42;1.83;;;1.40;;